Time;durP1;ratioP1;P1;durP2;ratioP2;P2;SDS_P1;SDS_P2;PMS_P1;PMS_P2;Temp;Humidity;BMP_temperature;BMP_pressure;BME280_temperature;BME280_humidity;BME280_pressure;Samples;Min_cycle;Max_cycle;Signal;HPM_P1;HPM_P2
2022/05/21 00:00:23;;;;;;;;;6.00;6.00;;;;;16.55;71.01;102179.69;5014184;28;50380;-68
2022/05/21 00:02:50;;;;;;;;;6.25;5.00;;;;;16.48;71.12;102164.53;5014496;28;49750;-67
2022/05/21 00:05:18;;;;;;;;;6.00;6.00;;;;;16.58;71.51;102179.72;5014046;28;50672;-67
2022/05/21 00:07:44;;;;;;;;;6.50;5.50;;;;;16.58;71.30;102182.38;5028052;28;49949;-67
2022/05/21 00:10:13;;;;;;;;;4.25;4.25;;;;;16.58;71.65;102176.19;5033101;28;49694;-70
2022/05/21 00:12:39;;;;;;;;;6.75;6.75;;;;;16.57;71.37;102179.72;5033320;28;49639;-68
2022/05/21 00:15:06;;;;;;;;;6.25;5.25;;;;;16.54;71.28;102179.66;5032921;28;50715;-68
2022/05/21 00:17:31;;;;;;;;;7.00;7.00;;;;;16.51;71.36;102176.97;5032858;28;49813;-67
2022/05/21 00:19:57;;;;;;;;;4.50;4.50;;;;;16.53;71.51;102178.78;5032384;28;49689;-69
2022/05/21 00:22:22;;;;;;;;;5.25;4.50;;;;;16.50;71.66;102172.50;5032994;28;49468;-69
2022/05/21 00:24:48;;;;;;;;;5.75;5.75;;;;;16.48;71.47;102171.59;5032799;28;49690;-70
2022/05/21 00:27:13;;;;;;;;;5.00;3.00;;;;;16.47;71.56;102175.09;5013828;28;49833;-66
2022/05/21 00:29:38;;;;;;;;;5.25;3.75;;;;;16.33;71.62;102158.94;5013995;28;49905;-68
2022/05/21 00:32:04;;;;;;;;;5.75;4.75;;;;;16.45;71.95;102185.69;5013866;28;49968;-67
2022/05/21 00:34:30;;;;;;;;;3.00;3.00;;;;;16.44;71.79;102183.00;5013396;28;50372;-70
2022/05/21 00:36:55;;;;;;;;;6.00;5.50;;;;;16.42;71.92;102190.03;5013466;28;49788;-70
2022/05/21 00:39:21;;;;;;;;;6.00;6.00;;;;;16.33;72.08;102180.16;5013830;28;49769;-70
2022/05/21 00:41:47;;;;;;;;;4.00;4.00;;;;;16.37;71.92;102189.94;5013761;28;49753;-67
2022/05/21 00:44:12;;;;;;;;;4.50;4.00;;;;;15.91;71.87;102121.88;5020459;28;50537;-69
2022/05/21 00:46:41;;;;;;;;;3.00;3.00;;;;;16.26;72.03;102181.78;5013496;28;49711;-69
2022/05/21 00:49:11;;;;;;;;;6.25;4.75;;;;;16.29;72.43;102186.22;5013531;28;49756;-68
2022/05/21 00:51:48;;;;;;;;;4.25;4.25;;;;;16.26;72.44;102183.53;5021857;28;49775;-69
2022/05/21 00:54:16;;;;;;;;;4.50;4.50;;;;;16.17;72.47;102167.44;5014657;28;49937;-70
2022/05/21 00:56:50;;;;;;;;;4.00;4.00;;;;;16.19;72.68;102178.97;5022055;28;49735;-69
2022/05/21 01:02:03;;;;;;;;;5.50;5.50;;;;;16.16;72.61;102174.50;5030198;28;49829;-67
2022/05/21 01:04:31;;;;;;;;;6.50;6.50;;;;;15.99;72.71;102158.25;5017229;28;50452;-67
2022/05/21 01:07:00;;;;;;;;;6.25;5.25;;;;;16.12;72.70;102175.31;5017913;28;49730;-67
2022/05/21 01:09:26;;;;;;;;;4.25;4.25;;;;;16.11;72.97;102172.59;5013237;28;49722;-66
2022/05/21 01:11:52;;;;;;;;;3.75;3.75;;;;;16.10;73.15;102174.38;5013304;28;49905;-68
2022/05/21 01:14:20;;;;;;;;;6.25;6.25;;;;;16.10;72.97;102178.78;5013018;28;50532;-67
2022/05/21 01:16:47;;;;;;;;;4.00;4.00;;;;;16.07;73.09;102176.06;5013000;28;49908;-67
2022/05/21 01:19:12;;;;;;;;;6.00;6.00;;;;;16.09;73.47;102175.22;5020648;28;49909;-66
2022/05/21 01:21:38;;;;;;;;;7.00;6.00;;;;;15.91;73.02;102141.31;5012960;28;49701;-69
2022/05/21 01:24:05;;;;;;;;;4.50;4.50;;;;;16.08;72.86;102173.44;5013037;28;49854;-68
2022/05/21 01:26:33;;;;;;;;;4.25;4.25;;;;;16.08;73.39;102175.19;5012970;28;49699;-66
2022/05/21 01:28:59;;;;;;;;;5.00;5.00;;;;;16.06;72.99;102166.34;5012945;28;49728;-67
2022/05/21 01:31:25;;;;;;;;;3.00;3.00;;;;;16.07;73.04;102176.97;5013756;28;49739;-69
2022/05/21 01:33:50;;;;;;;;;4.25;4.25;;;;;15.95;73.18;102148.47;5016345;28;50216;-66
2022/05/21 01:36:17;;;;;;;;;5.00;5.00;;;;;16.09;73.42;102177.00;5016108;28;49869;-69
2022/05/21 01:38:43;;;;;;;;;4.00;4.00;;;;;16.10;73.47;102182.31;5016621;28;49881;-68
2022/05/21 01:41:09;;;;;;;;;4.25;4.25;;;;;16.05;73.60;102164.56;5035485;28;49833;-69
2022/05/21 01:46:20;;;;;;;;;2.50;2.50;;;;;16.15;73.41;102178.00;5035367;28;49653;-70
2022/05/21 01:48:46;;;;;;;;;4.25;4.25;;;;;16.16;73.14;102170.97;5035249;28;49693;-69
2022/05/21 01:51:12;;;;;;;;;3.50;3.25;;;;;16.17;73.26;102181.59;5035308;28;49727;-68
2022/05/21 01:53:39;;;;;;;;;5.00;4.00;;;;;16.18;72.89;102178.06;5033630;28;52387;-68
2022/05/21 01:56:06;;;;;;;;;5.25;4.50;;;;;16.17;73.26;102173.63;5028599;28;49623;-67
2022/05/21 01:58:32;;;;;;;;;6.75;5.00;;;;;16.19;73.36;102173.66;5015656;28;49950;-67
2022/05/21 02:00:58;;;;;;;;;3.25;3.25;;;;;16.01;73.21;102140.63;5016340;28;49855;-68
2022/05/21 02:03:24;;;;;;;;;6.50;4.75;;;;;16.20;73.04;102171.03;5025312;28;50604;-70
2022/05/21 02:05:50;;;;;;;;;5.00;4.75;;;;;16.21;73.20;102171.94;5015778;28;49740;-67
2022/05/21 02:08:17;;;;;;;;;6.00;5.00;;;;;16.21;73.29;102170.22;5016997;28;50097;-69
2022/05/21 02:10:44;;;;;;;;;5.75;4.75;;;;;16.22;73.06;102166.69;5035317;28;49888;-70
2022/05/21 02:13:21;;;;;;;;;4.50;4.00;;;;;16.23;73.16;102168.47;5034693;28;49555;-66
2022/05/21 02:15:47;;;;;;;;;5.50;5.50;;;;;16.25;72.91;102168.50;5034710;28;49693;-69
2022/05/21 02:18:13;;;;;;;;;3.25;3.25;;;;;16.24;72.84;102167.59;5034942;28;49853;-69
2022/05/21 02:20:39;;;;;;;;;5.00;5.00;;;;;16.25;72.98;102173.78;5028202;28;50136;-67
2022/05/21 02:23:05;;;;;;;;;2.75;2.75;;;;;16.24;72.53;102174.66;5015429;28;49685;-66
2022/05/21 02:25:30;;;;;;;;;3.00;3.00;;;;;16.22;72.77;102173.75;5023762;28;49761;-67
2022/05/21 02:27:56;;;;;;;;;6.00;6.00;;;;;16.23;72.98;102183.47;5019640;28;49677;-66
2022/05/21 02:30:21;;;;;;;;;5.00;4.00;;;;;16.23;72.48;102178.19;5018272;28;49971;-66
2022/05/21 02:32:46;;;;;;;;;3.00;3.00;;;;;16.21;72.51;102180.81;5018413;28;49880;-67
2022/05/21 02:35:13;;;;;;;;;3.50;3.50;;;;;16.20;72.05;102179.00;5020553;28;49714;-67
2022/05/21 02:40:23;;;;;;;;;3.00;3.00;;;;;16.12;72.65;102153.22;5020440;28;49705;-69
2022/05/21 02:42:48;;;;;;;;;6.00;3.75;;;;;16.21;72.36;102169.28;5014978;28;49871;-67
2022/05/21 02:45:23;;;;;;;;;4.00;4.00;;;;;16.20;72.36;102173.69;5017220;28;49552;-69
2022/05/21 02:47:50;;;;;;;;;5.00;5.00;;;;;16.19;72.06;102182.50;5022084;28;49836;-68
2022/05/21 02:50:18;;;;;;;;;5.00;3.50;;;;;16.19;71.72;102169.25;5021680;28;49525;-69
2022/05/21 02:52:43;;;;;;;;;2.50;2.25;;;;;16.02;72.14;102145.09;5017990;28;51640;-68
2022/05/21 02:55:09;;;;;;;;;5.00;5.00;;;;;16.17;72.14;102175.41;5021983;28;49706;-68
2022/05/21 02:57:35;;;;;;;;;5.75;3.00;;;;;16.16;72.32;102170.97;5018737;28;49985;-70
2022/05/21 03:00:09;;;;;;;;;5.25;4.25;;;;;16.13;72.45;102176.22;5027927;28;49763;-67
2022/05/21 03:02:35;;;;;;;;;5.50;4.25;;;;;16.11;72.29;102169.97;5027772;28;49987;-69
2022/05/21 03:05:02;;;;;;;;;6.25;5.50;;;;;16.07;72.24;102170.78;5024326;28;49465;-69
2022/05/21 03:07:27;;;;;;;;;6.00;4.25;;;;;16.06;72.50;102172.53;5018205;28;49809;-69
2022/05/21 03:12:36;;;;;;;;;5.75;5.00;;;;;15.89;72.89;102156.28;5014730;28;49877;-66
2022/05/21 03:15:01;;;;;;;;;3.75;3.75;;;;;16.00;73.08;102172.38;5021562;28;49971;-66
2022/05/21 03:17:27;;;;;;;;;4.00;4.00;;;;;15.99;72.91;102171.50;5015024;28;49915;-67
2022/05/21 03:19:53;;;;;;;;;6.00;3.50;;;;;15.83;72.93;102142.94;5033545;28;50032;-67
2022/05/21 03:22:18;;;;;;;;;4.50;3.25;;;;;16.04;73.25;102171.59;5014428;28;50451;-67
2022/05/21 03:24:44;;;;;;;;;3.00;3.00;;;;;16.07;72.96;102170.78;5019260;28;50156;-66
2022/05/21 03:27:09;;;;;;;;;3.00;3.00;;;;;16.07;72.86;102174.31;5027814;28;49665;-66
2022/05/21 03:29:35;;;;;;;;;1.00;1.00;;;;;16.04;73.22;102166.31;5016712;28;49654;-66
2022/05/21 03:32:01;;;;;;;;;5.00;4.25;;;;;16.13;73.32;102171.81;5025908;28;50486;-68
2022/05/21 03:34:26;;;;;;;;;5.75;4.00;;;;;16.13;73.27;102187.69;5028058;28;49671;-67
2022/05/21 03:36:51;;;;;;;;;3.00;3.00;;;;;16.05;72.71;102159.25;5018213;28;49789;-67
2022/05/21 03:39:17;;;;;;;;;3.25;3.25;;;;;16.17;73.36;102184.22;5015681;28;49861;-68
2022/05/21 03:41:42;;;;;;;;;3.75;3.75;;;;;16.06;73.29;102153.97;5016310;28;50364;-67
2022/05/21 03:44:09;;;;;;;;;3.25;3.25;;;;;16.14;72.94;102172.69;5023687;28;49779;-69
2022/05/21 03:46:38;;;;;;;;;5.00;5.00;;;;;16.19;73.01;102176.31;5016608;28;49732;-67
2022/05/21 03:49:04;;;;;;;;;6.00;4.00;;;;;16.23;73.17;102183.47;5017255;28;49866;-68
2022/05/21 03:51:29;;;;;;;;;3.00;3.00;;;;;16.23;73.19;102180.81;5016529;28;50628;-67
2022/05/21 03:53:54;;;;;;;;;5.00;5.00;;;;;16.22;72.76;102181.69;5019758;28;49709;-69
2022/05/21 03:56:20;;;;;;;;;3.75;3.50;;;;;16.21;72.73;102187.81;5020467;28;50471;-68
2022/05/21 03:58:45;;;;;;;;;4.00;4.00;;;;;16.19;73.05;102178.97;5018629;28;49883;-69
2022/05/21 04:01:10;;;;;;;;;4.00;4.00;;;;;16.14;72.96;102180.63;5023000;28;49796;-69
2022/05/21 04:03:36;;;;;;;;;3.50;3.50;;;;;16.14;72.59;102186.84;5020202;28;49812;-69
2022/05/21 04:06:01;;;;;;;;;4.75;4.00;;;;;16.16;73.06;102192.16;5018112;28;49805;-70
2022/05/21 04:08:27;;;;;;;;;2.00;2.00;;;;;16.06;72.83;102169.00;5015227;28;49957;-67
2022/05/21 04:10:52;;;;;;;;;3.25;3.25;;;;;16.16;73.02;102173.59;5016502;28;49820;-66
2022/05/21 04:13:17;;;;;;;;;4.00;4.00;;;;;16.21;73.08;102182.53;5016807;28;49682;-67
2022/05/21 04:15:44;;;;;;;;;3.00;3.00;;;;;16.16;73.09;102177.16;5035617;28;49773;-66
2022/05/21 04:18:10;;;;;;;;;3.50;3.50;;;;;16.06;72.29;102164.59;5012709;28;49883;-65
2022/05/21 04:20:35;;;;;;;;;5.00;3.25;;;;;16.19;72.72;102198.41;5023283;28;50564;-66
2022/05/21 04:23:01;;;;;;;;;4.50;3.75;;;;;16.02;72.43;102160.09;5020687;28;49809;-66
2022/05/21 04:25:26;;;;;;;;;3.25;3.25;;;;;16.22;72.03;102193.19;5032714;28;50240;-66
2022/05/21 04:27:52;;;;;;;;;2.50;2.25;;;;;16.24;72.18;102193.22;5022215;28;49777;-65
2022/05/21 04:30:25;;;;;;;;;5.00;3.50;;;;;16.26;72.26;102192.38;5013874;28;49642;-66
2022/05/21 04:32:51;;;;;;;;;4.50;4.25;;;;;16.28;71.82;102201.25;5019315;28;49793;-69
2022/05/21 04:35:17;;;;;;;;;4.75;4.75;;;;;16.31;71.10;102195.13;5019415;28;49674;-70
2022/05/21 04:37:42;;;;;;;;;5.00;4.75;;;;;16.31;71.49;102190.72;5019941;28;49896;-66
2022/05/21 04:40:11;;;;;;;;;4.50;4.50;;;;;16.25;71.21;102166.75;5021589;28;49677;-66
2022/05/21 04:42:36;;;;;;;;;5.25;5.25;;;;;16.41;71.05;102190.91;5030808;28;49952;-68
2022/05/21 04:45:04;;;;;;;;;5.00;4.00;;;;;16.43;71.92;102190.06;5023590;28;49730;-65
2022/05/21 04:47:30;;;;;;;;;4.50;4.00;;;;;16.41;71.87;102189.16;5017601;28;50059;-69
2022/05/21 04:49:55;;;;;;;;;4.25;4.25;;;;;16.43;71.86;102189.16;5021919;28;49844;-66
2022/05/21 04:52:21;;;;;;;;;5.75;4.75;;;;;16.43;72.00;102182.09;5020694;28;49844;-67
2022/05/21 04:54:46;;;;;;;;;7.00;5.75;;;;;16.39;71.57;102184.66;5015377;28;49685;-66
2022/05/21 04:57:12;;;;;;;;;4.25;3.50;;;;;16.39;71.58;102187.31;5023426;28;49524;-69
2022/05/21 04:59:37;;;;;;;;;4.25;4.25;;;;;16.43;71.63;102182.09;5013966;28;50453;-69
2022/05/21 05:02:02;;;;;;;;;4.00;4.00;;;;;16.50;71.84;102188.41;5017716;28;49760;-68
2022/05/21 05:04:28;;;;;;;;;6.00;5.00;;;;;16.48;72.05;102179.53;5015306;28;49694;-69
2022/05/21 05:06:53;;;;;;;;;6.50;5.00;;;;;16.52;71.85;102174.34;5021534;28;49774;-69
2022/05/21 05:09:23;;;;;;;;;3.75;3.75;;;;;16.63;72.13;102182.47;5017989;28;50336;-67
2022/05/21 05:11:52;;;;;;;;;4.25;4.25;;;;;16.66;71.63;102179.88;5021196;28;49624;-66
2022/05/21 05:14:18;;;;;;;;;4.75;4.75;;;;;16.48;71.85;102158.31;5021379;28;49793;-66
2022/05/21 05:16:44;;;;;;;;;4.25;4.25;;;;;16.71;71.94;102191.50;5018855;28;49826;-68
2022/05/21 05:19:09;;;;;;;;;4.00;4.00;;;;;16.73;71.76;102188.88;5019460;28;49661;-67
2022/05/21 05:21:35;;;;;;;;;5.00;5.00;;;;;16.76;71.61;102183.63;5020868;28;49791;-69
2022/05/21 05:24:00;;;;;;;;;4.50;4.50;;;;;16.81;71.04;102193.47;5029086;28;49966;-69
2022/05/21 05:26:26;;;;;;;;;4.00;4.00;;;;;16.84;71.10;102184.66;5023054;28;51249;-68
2022/05/21 05:28:51;;;;;;;;;5.00;5.00;;;;;16.75;71.00;102168.59;5020909;28;49785;-66
2022/05/21 05:31:17;;;;;;;;;5.50;4.25;;;;;16.91;70.94;102180.38;5017598;28;49713;-69
2022/05/21 05:33:42;;;;;;;;;6.75;4.00;;;;;16.94;70.62;102178.66;5020815;28;49781;-69
2022/05/21 05:36:09;;;;;;;;;3.50;3.50;;;;;16.97;69.92;102180.44;5022724;28;49761;-67
2022/05/21 05:38:34;;;;;;;;;2.00;2.00;;;;;16.94;69.23;102172.44;5018909;28;49888;-66
2022/05/21 05:40:59;;;;;;;;;4.25;4.00;;;;;16.93;69.22;102165.38;5027528;28;50241;-66
2022/05/21 05:43:25;;;;;;;;;6.25;6.00;;;;;17.01;68.66;102175.25;5028818;28;49971;-66
2022/05/21 05:45:58;;;;;;;;;3.75;3.25;;;;;17.04;69.25;102180.59;5022770;28;49695;-66
2022/05/21 05:48:28;;;;;;;;;6.00;3.75;;;;;17.07;69.11;102175.31;5023670;28;49722;-68
2022/05/21 05:50:54;;;;;;;;;4.75;4.75;;;;;17.11;68.38;102182.47;5019245;28;49898;-66
2022/05/21 05:53:20;;;;;;;;;9.00;6.25;;;;;17.14;68.87;102171.03;5024139;28;49809;-66
2022/05/21 05:55:46;;;;;;;;;5.00;5.00;;;;;17.17;68.98;102176.38;5022432;28;49809;-66
2022/05/21 06:00:55;;;;;;;;;5.00;5.00;;;;;17.23;68.21;102175.59;5029267;28;49922;-66
2022/05/21 06:03:21;;;;;;;;;4.00;4.00;;;;;17.37;67.00;102188.22;5021290;28;50301;-67
2022/05/21 06:05:49;;;;;;;;;5.00;4.25;;;;;17.40;65.32;102182.94;5020536;28;49629;-66
2022/05/21 06:08:16;;;;;;;;;8.50;4.00;;;;;17.41;65.93;102178.53;5016745;28;51413;-67
2022/05/21 06:10:43;;;;;;;;;4.25;4.25;;;;;17.38;66.35;102168.75;5030378;28;49794;-66
2022/05/21 06:13:09;;;;;;;;;2.25;2.25;;;;;17.46;66.48;102175.06;5018208;28;49893;-66
2022/05/21 06:15:35;;;;;;;;;6.00;4.75;;;;;17.59;66.26;102177.91;5024039;28;49798;-66
2022/05/21 06:18:07;;;;;;;;;3.00;3.00;;;;;17.77;65.10;102183.53;5035125;28;50374;-68
2022/05/21 06:20:33;;;;;;;;;3.00;3.00;;;;;17.81;64.22;102168.50;5033142;28;49755;-66
2022/05/21 06:22:58;;;;;;;;;4.75;4.75;;;;;17.98;63.04;102191.78;5015520;28;49857;-66
2022/05/21 06:25:25;;;;;;;;;4.00;2.50;;;;;18.01;63.47;102183.81;5026578;28;49717;-67
2022/05/21 06:27:52;;;;;;;;;5.50;3.50;;;;;18.06;63.36;102191.00;5024301;28;50502;-68
2022/05/21 06:30:21;;;;;;;;;4.25;4.25;;;;;18.12;62.89;102186.63;5017562;28;49797;-67
2022/05/21 06:32:47;;;;;;;;;3.00;3.00;;;;;18.22;63.19;102183.19;5026144;28;49618;-66
2022/05/21 06:35:13;;;;;;;;;5.25;3.50;;;;;18.31;62.62;102188.63;5019558;28;49575;-67
2022/05/21 06:37:38;;;;;;;;;2.75;2.75;;;;;18.41;61.65;102183.41;5028909;28;50024;-68
2022/05/21 06:40:05;;;;;;;;;5.00;5.00;;;;;18.44;61.51;102175.50;5020029;28;49803;-68
2022/05/21 06:42:31;;;;;;;;;4.00;4.00;;;;;18.48;61.71;102164.88;5026882;28;49709;-69
2022/05/21 06:44:56;;;;;;;;;5.25;4.25;;;;;18.81;61.24;102193.63;5022255;28;49912;-68
2022/05/21 06:47:22;;;;;;;;;3.75;2.25;;;;;18.92;59.23;102187.53;5024860;28;49760;-68
2022/05/21 06:49:47;;;;;;;;;5.00;3.50;;;;;19.00;59.32;102188.47;5023503;28;49704;-67
2022/05/21 06:52:12;;;;;;;;;4.50;4.50;;;;;19.00;58.88;102184.03;5030888;28;49780;-66
2022/05/21 06:54:38;;;;;;;;;1.75;1.75;;;;;18.93;58.25;102168.03;5021857;28;49984;-67
2022/05/21 06:57:08;;;;;;;;;5.00;4.00;;;;;19.16;58.46;102187.72;5015058;28;50429;-69
2022/05/21 06:59:34;;;;;;;;;4.50;3.00;;;;;19.19;58.61;102179.75;5020440;28;49868;-68
2022/05/21 07:01:59;;;;;;;;;2.00;1.25;;;;;18.85;58.43;102109.41;5020041;28;49736;-69
2022/05/21 07:09:57;;;;;;;;;3.00;2.25;;;;;19.30;58.11;102148.81;5028502;28;49940;-67
2022/05/21 07:12:22;;;;;;;;;4.75;3.00;;;;;19.50;56.74;102185.31;5033377;28;49706;-69
2022/05/21 07:14:47;;;;;;;;;3.25;3.25;;;;;19.42;56.69;102164.84;5034084;28;49747;-67
2022/05/21 07:17:14;;;;;;;;;4.50;4.00;;;;;18.54;55.71;102013.38;5033853;28;50690;-66
2022/05/21 07:19:39;;;;;;;;;2.75;2.75;;;;;19.39;55.74;102153.28;5033825;28;49799;-67
2022/05/21 07:22:05;;;;;;;;;2.50;2.50;;;;;19.62;56.32;102186.31;5033783;28;49899;-66
2022/05/21 07:24:30;;;;;;;;;1.25;1.25;;;;;19.67;54.87;102167.69;5034043;28;49680;-67
2022/05/21 07:26:55;;;;;;;;;2.00;2.00;;;;;19.69;53.56;102153.50;5033727;28;49721;-66
2022/05/21 07:29:21;;;;;;;;;5.00;3.75;;;;;19.93;53.91;102181.16;5034195;28;49725;-67
2022/05/21 07:31:46;;;;;;;;;3.50;2.25;;;;;20.10;54.45;102189.22;5033706;28;49855;-66
2022/05/21 07:34:12;;;;;;;;;3.50;2.00;;;;;20.09;53.26;102179.47;5033770;28;49606;-66
2022/05/21 07:36:37;;;;;;;;;3.25;2.75;;;;;20.07;53.52;102165.22;5031855;28;52181;-68
2022/05/21 07:39:02;;;;;;;;;3.75;3.75;;;;;20.01;53.03;102156.31;5033425;28;49694;-66
2022/05/21 07:41:28;;;;;;;;;2.50;1.50;;;;;20.29;53.48;102193.75;5033724;28;49900;-68
2022/05/21 07:43:53;;;;;;;;;2.00;2.00;;;;;20.33;52.51;102184.84;5033574;28;49603;-66
2022/05/21 07:46:18;;;;;;;;;2.50;2.25;;;;;20.33;53.04;102178.63;5033146;28;56267;-66
2022/05/21 07:48:44;;;;;;;;;2.75;2.50;;;;;20.30;52.03;102179.53;5033414;28;49595;-70
2022/05/21 07:51:09;;;;;;;;;2.00;2.00;;;;;20.39;52.02;102184.91;5033325;28;49682;-65
2022/05/21 07:53:38;;;;;;;;;2.50;2.00;;;;;20.41;52.34;102174.22;5033282;28;50049;-67
2022/05/21 07:56:03;;;;;;;;;1.50;1.50;;;;;20.38;50.71;102168.88;5033200;28;50487;-72
2022/05/21 07:58:31;;;;;;;;;4.00;1.00;;;;;20.41;51.74;102183.13;5033282;28;49752;-70
2022/05/21 08:00:57;;;;;;;;;1.00;1.00;;;;;20.46;51.52;102191.16;5033537;28;49604;-73
2022/05/21 08:03:23;;;;;;;;;0.25;0.25;;;;;20.48;51.33;102182.28;5032728;28;49829;-75
2022/05/21 08:05:49;;;;;;;;;2.00;2.00;;;;;20.32;51.25;102147.53;5033065;28;49782;-70
2022/05/21 08:08:15;;;;;;;;;0.50;0.50;;;;;20.51;51.43;102184.06;5032738;28;50266;-69
2022/05/21 08:10:44;;;;;;;;;0.75;0.75;;;;;20.22;51.11;102109.28;5032593;28;49723;-71
2022/05/21 08:13:10;;;;;;;;;2.75;2.00;;;;;20.72;50.38;102184.09;5030079;28;49953;-71
2022/05/21 08:15:36;;;;;;;;;8.75;2.75;;;;;20.63;47.77;102184.06;5017905;28;49713;-67
2022/05/21 08:18:04;;;;;;;;;0.00;0.00;;;;;20.74;48.52;102186.75;5013112;28;49817;-67
2022/05/21 08:20:31;;;;;;;;;1.00;1.00;;;;;20.81;47.98;102185.88;5025113;28;49789;-66
2022/05/21 08:28:24;;;;;;;;;0.25;0.25;;;;;21.09;47.40;102160.09;5017956;28;49706;-67
2022/05/21 08:30:49;;;;;;;;;2.00;1.00;;;;;21.08;47.30;102155.66;5028902;28;49736;-67
2022/05/21 08:33:16;;;;;;;;;2.25;0.25;;;;;21.01;46.68;102146.75;5013741;28;49900;-74
2022/05/21 08:35:42;;;;;;;;;0.75;0.75;;;;;21.13;45.86;102156.53;5015345;28;49682;-68
2022/05/21 08:38:09;;;;;;;;;1.50;0.50;;;;;21.13;46.94;102167.19;5024053;28;49859;-67
2022/05/21 08:40:44;;;;;;;;;1.00;1.00;;;;;21.19;47.49;102169.00;5032461;28;49770;-74
2022/05/21 08:43:23;;;;;;;;;1.00;1.00;;;;;21.21;47.31;102159.19;5032594;28;49904;-76
2022/05/21 08:46:07;;;;;;;;;1.00;1.00;;;;;21.38;46.60;102157.44;5032529;28;49711;-69
2022/05/21 08:48:33;;;;;;;;;1.00;1.00;;;;;21.34;46.28;102135.19;5027776;28;49680;-68
2022/05/21 08:51:01;;;;;;;;;1.00;1.00;;;;;21.41;45.39;102141.38;5013745;28;49892;-68
2022/05/21 08:53:29;;;;;;;;;0.00;0.00;;;;;21.48;46.50;102159.19;5013550;28;49857;-69
2022/05/21 08:55:58;;;;;;;;;2.00;0.00;;;;;21.51;46.18;102163.63;5013061;28;50355;-69
2022/05/21 08:58:41;;;;;;;;;0.25;0.25;;;;;21.51;46.11;102163.63;5013407;28;49666;-68
2022/05/21 09:01:10;;;;;;;;;1.50;1.00;;;;;21.39;45.29;102133.38;5023923;28;49766;-69
2022/05/21 09:03:35;;;;;;;;;1.00;1.00;;;;;21.53;47.07;102146.72;5013547;28;49781;-70
2022/05/21 09:06:39;;;;;;;;;2.50;2.00;;;;;21.47;45.96;102135.16;5013260;28;50236;-71
2022/05/21 09:09:34;;;;;;;;;1.50;1.50;;;;;21.60;45.57;102151.13;5018228;28;49814;-71
2022/05/21 09:12:09;;;;;;;;;1.50;1.50;;;;;21.60;45.70;102153.81;5029547;28;49591;-73
2022/05/21 09:14:43;;;;;;;;;1.50;1.50;;;;;21.38;45.22;102134.28;5032906;28;49946;-71
2022/05/21 09:17:14;;;;;;;;;0.50;0.50;;;;;21.34;46.32;102142.31;5023808;28;49699;-69
2022/05/21 09:19:46;;;;;;;;;1.25;0.00;;;;;21.22;47.21;102103.09;5025215;28;49835;-72
2022/05/21 09:22:15;;;;;;;;;1.00;1.00;;;;;21.37;46.14;102110.25;5032250;28;50179;-69
2022/05/21 09:24:54;;;;;;;;;2.75;2.75;;;;;21.51;46.56;102118.22;5017101;28;49826;-69
2022/05/21 09:27:22;;;;;;;;;1.00;1.00;;;;;21.59;46.67;102125.31;5012859;28;50751;-73
2022/05/21 09:29:51;;;;;;;;;2.75;1.50;;;;;21.39;47.05;102087.06;5012888;28;49786;-78
2022/05/21 09:32:22;;;;;;;;;1.00;1.00;;;;;21.69;46.97;102121.72;4994801;28;49876;-76
2022/05/21 09:35:13;;;;;;;;;1.00;1.00;;;;;21.75;46.21;102119.94;5013105;28;50087;-69
2022/05/21 09:37:40;;;;;;;;;1.00;1.00;;;;;21.71;45.71;102117.28;5017438;28;50690;-68
2022/05/21 09:40:34;;;;;;;;;1.25;1.25;;;;;21.65;45.86;102111.06;5018345;28;49878;-71
2022/05/21 09:46:27;;;;;;;;;3.00;2.75;;;;;21.77;46.54;102113.66;4929223;28;49904;-71
2022/05/21 09:49:11;;;;;;;;;1.00;1.00;;;;;21.83;46.73;102115.44;4932956;28;49863;-71
2022/05/21 09:51:38;;;;;;;;;2.00;2.00;;;;;21.76;46.59;102086.94;5001075;28;49968;-72
2022/05/21 09:54:22;;;;;;;;;2.25;2.25;;;;;21.78;45.79;102103.88;5031343;28;49725;-70
2022/05/21 09:56:53;;;;;;;;;1.00;1.00;;;;;21.72;45.70;102107.47;5016390;28;49842;-68
2022/05/21 09:59:24;;;;;;;;;2.50;1.00;;;;;21.73;46.80;102111.91;5015893;28;50721;-68
2022/05/21 10:01:57;;;;;;;;;1.00;1.00;;;;;21.77;45.60;102097.63;5016019;28;49619;-66
2022/05/21 10:04:55;;;;;;;;;3.00;3.00;;;;;21.81;46.43;102095.81;5016130;28;49705;-65
2022/05/21 10:13:17;;;;;;;;;2.50;2.25;;;;;21.92;47.50;102094.00;5032351;28;49880;-68
2022/05/21 10:15:46;;;;;;;;;1.00;1.00;;;;;21.92;47.30;102094.00;5032629;28;49752;-70
2022/05/21 10:18:36;;;;;;;;;1.75;1.75;;;;;21.97;47.89;102093.06;5033095;28;50067;-65
2022/05/21 10:21:35;;;;;;;;;4.00;4.00;;;;;21.62;47.27;102014.88;5032025;28;51323;-61
2022/05/21 10:24:07;;;;;;;;;1.50;1.25;;;;;22.01;48.16;102088.63;4995071;28;49935;-62
2022/05/21 10:26:32;;;;;;;;;6.00;3.00;;;;;22.11;47.47;102086.81;5030509;28;50009;-69
2022/05/21 10:29:20;;;;;;;;;1.50;1.50;;;;;22.09;46.24;102083.25;5030965;28;50088;-63
2022/05/21 10:32:08;;;;;;;;;1.25;1.00;;;;;22.10;47.51;102087.69;5015161;28;50602;-61
2022/05/21 10:35:17;;;;;;;;;3.50;1.75;;;;;22.08;47.46;102092.16;5015452;28;49738;-61
2022/05/21 10:38:09;;;;;;;;;2.75;2.00;;;;;22.17;47.48;102097.47;5029242;28;50118;-60
2022/05/21 10:41:23;;;;;;;;;4.25;3.50;;;;;22.20;46.30;102092.13;5034873;28;49619;-60
2022/05/21 10:44:22;;;;;;;;;2.00;2.00;;;;;22.20;46.41;102084.97;5003338;28;49856;-63
2022/05/21 10:46:53;;;;;;;;;1.50;1.50;;;;;22.23;46.82;102078.72;5020425;28;49930;-69
2022/05/21 10:49:49;;;;;;;;;3.00;2.75;;;;;22.18;47.20;102054.66;5015477;28;49828;-66
2022/05/21 10:52:32;;;;;;;;;2.75;2.75;;;;;22.32;46.33;102073.28;5015298;28;49643;-67
2022/05/21 10:55:09;;;;;;;;;2.50;2.50;;;;;22.42;46.10;102082.16;5028688;28;49788;-67
2022/05/21 10:58:04;;;;;;;;;1.00;1.00;;;;;22.48;46.50;102068.69;5034278;28;49703;-65
2022/05/21 11:00:32;;;;;;;;;5.25;4.50;;;;;22.57;46.32;102071.31;5027079;28;49812;-67
2022/05/21 11:03:19;;;;;;;;;2384.80;1315.60;;;;;22.43;46.05;102081.25;5028414;28;50421;-67
2022/05/21 11:06:04;;;;;;;;;581.67;431.67;;;;;22.46;46.63;102076.75;5027881;28;49937;-71
2022/05/21 11:08:51;;;;;;;;;63.25;47.00;;;;;22.54;46.50;102085.59;5019252;28;49825;-67
2022/05/21 11:11:37;;;;;;;;;2.25;2.25;;;;;22.66;46.86;102078.38;5027386;28;49870;-67
2022/05/21 11:14:11;;;;;;;;;3.00;2.00;;;;;22.74;47.04;102074.75;5025875;28;49786;-68
2022/05/21 11:17:09;;;;;;;;;3.50;3.25;;;;;22.85;46.45;102064.84;5029499;28;50410;-69
2022/05/21 11:19:46;;;;;;;;;3.00;3.00;;;;;22.96;46.08;102056.72;5018672;28;49825;-68
2022/05/21 11:22:26;;;;;;;;;2.75;2.75;;;;;22.83;46.26;102010.41;5021585;28;49833;-69
2022/05/21 11:25:01;;;;;;;;;3.50;2.00;;;;;23.19;46.20;102044.88;5015139;28;50562;-70
2022/05/21 11:27:37;;;;;;;;;2.00;2.00;;;;;23.26;46.08;102039.44;5019871;28;49708;-70
2022/05/21 11:30:09;;;;;;;;;4.50;1.75;;;;;23.38;46.30;102038.41;5029837;28;50035;-68
2022/05/21 11:38:31;;;;;;;;;4.00;4.00;;;;;23.51;44.80;102031.09;5022193;28;50176;-69
2022/05/21 11:46:47;;;;;;;;;4.75;2.75;;;;;23.46;43.97;102020.44;5030492;28;49646;-67
2022/05/21 11:49:29;;;;;;;;;7.50;2.25;;;;;23.50;43.14;102014.13;5024462;28;49887;-67
2022/05/21 11:51:58;;;;;;;;;4.00;1.50;;;;;23.51;43.66;102007.84;5022873;28;49625;-70
2022/05/21 11:54:41;;;;;;;;;2.25;1.25;;;;;23.70;43.70;102008.53;5021214;28;49783;-65
2022/05/21 11:57:07;;;;;;;;;4.00;3.00;;;;;23.76;43.32;102005.78;5032197;28;49575;-67
2022/05/21 11:59:52;;;;;;;;;4.50;2.75;;;;;23.68;43.30;102005.00;5020035;28;49807;-66
2022/05/21 12:02:27;;;;;;;;;0.25;0.25;;;;;23.83;43.75;101991.34;5017319;28;49804;-66
2022/05/21 12:05:05;;;;;;;;;1.50;1.50;;;;;24.08;43.51;101997.25;5022286;28;49920;-67
2022/05/21 12:07:48;;;;;;;;;4.00;2.75;;;;;24.25;42.46;101992.50;5013750;28;49694;-69
2022/05/21 12:10:30;;;;;;;;;3.00;2.00;;;;;24.35;41.98;101984.34;5026670;28;50519;-66
2022/05/21 12:13:21;;;;;;;;;2.00;2.00;;;;;24.42;41.12;101981.53;5019249;28;49852;-70
2022/05/21 12:15:52;;;;;;;;;3.25;3.25;;;;;24.60;41.99;101974.03;5020046;28;49874;-67
2022/05/21 12:18:37;;;;;;;;;3.00;3.00;;;;;24.48;40.70;101946.50;5026250;28;49785;-66
2022/05/21 12:21:06;;;;;;;;;2.00;2.00;;;;;24.69;41.25;101968.50;5023341;28;51376;-67